Time;durP1;ratioP1;P1;durP2;ratioP2;P2;SDS_P1;SDS_P2;PMS_P1;PMS_P2;Temp;Humidity;BMP_temperature;BMP_pressure;BME280_temperature;BME280_humidity;BME280_pressure;Samples;Min_cycle;Max_cycle;Signal;HPM_P1;HPM_P2
2021/04/13 00:04:43;;;;;;;6.97;4.18;;;;;;;;;;9998122;29;20052;-64
2021/04/13 00:09:40;;;;;;;7.30;5.07;;;;;;;;;;9997694;29;20079;-65
2021/04/13 00:14:39;;;;;;;5.03;4.05;;;;;;;;;;10002887;29;20135;-65
2021/04/13 00:19:39;;;;;;;5.15;4.30;;;;;;;;;;10005353;29;20068;-66
2021/04/13 00:24:37;;;;;;;8.10;4.85;;;;;;;;;;10004065;29;20517;-65
2021/04/13 00:29:34;;;;;;;7.35;4.65;;;;;;;;;;10003132;29;20088;-65
2021/04/13 00:34:39;;;;;;;7.10;4.07;;;;;;;;;;10004398;29;20501;-65
2021/04/13 00:39:37;;;;;;;5.55;4.20;;;;;;;;;;10003660;29;20075;-66
2021/04/13 00:44:45;;;;;;;6.03;3.80;;;;;;;;;;10003649;29;20055;-64
2021/04/13 00:49:44;;;;;;;5.95;3.88;;;;;;;;;;10003545;29;20079;-65
2021/04/13 00:54:45;;;;;;;5.53;3.35;;;;;;;;;;10002986;29;20072;-65
2021/04/13 00:59:43;;;;;;;9.20;4.50;;;;;;;;;;10002996;29;20540;-65
2021/04/13 01:04:47;;;;;;;7.63;4.00;;;;;;;;;;10003578;29;20465;-65
2021/04/13 01:09:46;;;;;;;7.40;4.00;;;;;;;;;;10000907;29;20079;-65
2021/04/13 01:14:44;;;;;;;11.38;5.18;;;;;;;;;;10000789;29;20048;-64
2021/04/13 01:19:46;;;;;;;8.25;3.38;;;;;;;;;;10002313;29;20287;-62
2021/04/13 01:24:51;;;;;;;9.60;4.20;;;;;;;;;;10001914;29;20083;-64
2021/04/13 01:29:50;;;;;;;7.93;4.70;;;;;;;;;;10001557;29;20103;-64
2021/04/13 01:34:54;;;;;;;4.70;3.90;;;;;;;;;;10002285;29;20072;-65
2021/04/13 01:39:54;;;;;;;5.93;3.80;;;;;;;;;;10001080;29;20078;-65
2021/04/13 01:44:53;;;;;;;6.78;4.20;;;;;;;;;;10002142;29;20071;-65
2021/04/13 01:49:51;;;;;;;10.18;4.68;;;;;;;;;;10000480;29;20083;-65
2021/04/13 01:54:49;;;;;;;10.82;4.53;;;;;;;;;;10001709;29;20048;-65
2021/04/13 01:59:50;;;;;;;6.90;4.55;;;;;;;;;;10000689;29;20497;-65
2021/04/13 02:04:50;;;;;;;5.13;4.38;;;;;;;;;;10001365;29;20078;-65
2021/04/13 02:09:50;;;;;;;5.50;4.57;;;;;;;;;;10000888;29;20087;-65
2021/04/13 02:14:52;;;;;;;7.50;3.88;;;;;;;;;;10000865;29;20071;-64
2021/04/13 02:19:49;;;;;;;6.85;3.83;;;;;;;;;;10000595;29;20471;-65
2021/04/13 02:24:47;;;;;;;9.52;6.10;;;;;;;;;;10000178;29;20079;-65
2021/04/13 02:29:47;;;;;;;12.02;6.20;;;;;;;;;;9999074;29;20094;-65
2021/04/13 02:34:46;;;;;;;8.32;4.97;;;;;;;;;;9998426;29;20076;-65
2021/04/13 02:39:44;;;;;;;7.00;4.38;;;;;;;;;;9999228;29;20056;-65
2021/04/13 02:44:41;;;;;;;12.57;8.32;;;;;;;;;;9999883;29;20056;-65
2021/04/13 02:49:40;;;;;;;13.90;9.10;;;;;;;;;;9998776;29;20100;-65
2021/04/13 02:54:39;;;;;;;20.48;11.20;;;;;;;;;;9999804;29;20072;-65
2021/04/13 02:59:37;;;;;;;10.63;6.35;;;;;;;;;;9997292;29;20044;-64
2021/04/13 03:04:36;;;;;;;13.55;9.00;;;;;;;;;;9998510;29;20040;-64
2021/04/13 03:09:36;;;;;;;16.63;9.68;;;;;;;;;;9998767;29;20080;-64
2021/04/13 03:14:35;;;;;;;14.32;8.52;;;;;;;;;;9999148;29;20048;-64
2021/04/13 03:19:34;;;;;;;14.80;9.95;;;;;;;;;;9998220;29;20085;-64
2021/04/13 03:24:33;;;;;;;19.50;9.27;;;;;;;;;;9998419;29;20048;-64
2021/04/13 03:29:31;;;;;;;11.35;6.28;;;;;;;;;;9998281;29;20097;-64
2021/04/13 03:34:29;;;;;;;14.38;9.85;;;;;;;;;;9998184;29;20059;-64
2021/04/13 03:39:29;;;;;;;29.02;20.90;;;;;;;;;;9996213;29;20079;-64
2021/04/13 03:44:27;;;;;;;15.93;10.27;;;;;;;;;;9999882;29;20443;-63
2021/04/13 03:49:27;;;;;;;16.05;10.98;;;;;;;;;;10006093;29;20084;-63
2021/04/13 03:54:27;;;;;;;5.95;5.07;;;;;;;;;;10005200;29;20052;-63
2021/04/13 03:59:26;;;;;;;9.32;7.25;;;;;;;;;;10006257;29;20048;-62
2021/04/13 04:04:29;;;;;;;24.98;5.88;;;;;;;;;;10005586;29;20078;-66
2021/04/13 04:09:38;;;;;;;9.95;6.18;;;;;;;;;;10005110;29;20080;-63
2021/04/13 04:14:35;;;;;;;8.23;6.35;;;;;;;;;;10004931;29;20083;-64
2021/04/13 04:19:33;;;;;;;7.78;5.15;;;;;;;;;;10002730;29;20052;-64
2021/04/13 04:24:31;;;;;;;12.75;6.43;;;;;;;;;;10004524;29;20094;-65
2021/04/13 04:29:38;;;;;;;26.65;14.13;;;;;;;;;;10004045;29;20544;-64
2021/04/13 04:34:53;;;;;;;24.60;13.32;;;;;;;;;;10004632;29;20087;-64
2021/04/13 04:40:09;;;;;;;24.67;14.75;;;;;;;;;;10004392;29;20127;-63
2021/04/13 04:45:12;;;;;;;44.15;19.60;;;;;;;;;;10004183;29;20453;-63
2021/04/13 04:50:10;;;;;;;26.02;15.00;;;;;;;;;;10003460;29;20056;-63
2021/04/13 04:55:08;;;;;;;15.77;9.32;;;;;;;;;;10003382;29;20203;-65
2021/04/13 05:00:06;;;;;;;24.58;14.10;;;;;;;;;;10003249;29;20059;-65
2021/04/13 05:05:06;;;;;;;34.60;15.45;;;;;;;;;;10003273;29;20048;-65
2021/04/13 05:10:03;;;;;;;29.90;16.33;;;;;;;;;;10002920;29;20083;-65
2021/04/13 05:15:00;;;;;;;23.65;15.00;;;;;;;;;;10003417;29;20533;-65
2021/04/13 05:19:58;;;;;;;33.10;14.68;;;;;;;;;;10002755;29;20080;-65
2021/04/13 05:24:56;;;;;;;23.13;13.27;;;;;;;;;;10002347;29;20076;-65
2021/04/13 05:29:53;;;;;;;21.38;13.27;;;;;;;;;;10001916;29;20088;-65
2021/04/13 05:34:50;;;;;;;22.55;12.77;;;;;;;;;;10001679;29;20083;-65
2021/04/13 05:39:48;;;;;;;19.30;12.40;;;;;;;;;;10002555;29;20082;-65
2021/04/13 05:44:46;;;;;;;20.70;12.35;;;;;;;;;;10002163;29;20044;-65
2021/04/13 05:49:44;;;;;;;18.15;12.65;;;;;;;;;;10000770;29;20095;-65
2021/04/13 05:54:41;;;;;;;20.38;12.55;;;;;;;;;;10001275;29;20091;-65
2021/04/13 05:59:38;;;;;;;22.85;12.50;;;;;;;;;;10001361;29;20080;-65
2021/04/13 06:04:37;;;;;;;22.75;11.75;;;;;;;;;;10001783;29;20051;-65
2021/04/13 06:09:34;;;;;;;19.23;11.68;;;;;;;;;;10000438;29;20080;-65
2021/04/13 06:14:31;;;;;;;19.30;11.63;;;;;;;;;;10000679;29;20060;-65
2021/04/13 06:19:30;;;;;;;19.45;11.38;;;;;;;;;;10001273;29;20072;-65
2021/04/13 06:24:28;;;;;;;19.17;11.27;;;;;;;;;;10000678;29;20466;-65
2021/04/13 06:29:25;;;;;;;22.10;12.82;;;;;;;;;;10000178;29;20087;-65
2021/04/13 06:34:23;;;;;;;29.17;13.80;;;;;;;;;;10000296;29;20076;-65
2021/04/13 06:39:21;;;;;;;22.60;15.20;;;;;;;;;;10000161;29;20083;-65
2021/04/13 06:44:42;;;;;;;118.32;35.05;;;;;;;;;;10000079;29;20079;-65
2021/04/13 06:49:48;;;;;;;15.63;10.52;;;;;;;;;;9985858;29;20102;-65
2021/04/13 06:54:52;;;;;;;19.10;10.50;;;;;;;;;;9999902;29;20048;-64
2021/04/13 07:00:01;;;;;;;13.48;10.50;;;;;;;;;;9999572;29;20406;-64
2021/04/13 07:05:01;;;;;;;19.17;10.35;;;;;;;;;;9997742;29;20063;-64
2021/04/13 07:10:02;;;;;;;31.85;16.65;;;;;;;;;;9999470;29;20075;-64
2021/04/13 07:15:02;;;;;;;18.05;9.30;;;;;;;;;;9999048;29;20055;-64
2021/04/13 07:20:02;;;;;;;23.02;10.85;;;;;;;;;;10000694;29;20088;-64
2021/04/13 07:25:00;;;;;;;47.13;19.95;;;;;;;;;;10006978;29;20508;-62
2021/04/13 07:30:05;;;;;;;36.83;21.08;;;;;;;;;;10006187;29;20091;-62
2021/04/13 07:35:04;;;;;;;23.03;12.13;;;;;;;;;;10006731;29;20052;-62
2021/04/13 07:40:05;;;;;;;24.45;10.55;;;;;;;;;;10006355;29;20048;-63
2021/04/13 07:45:09;;;;;;;22.55;12.23;;;;;;;;;;10006252;29;20055;-62
2021/04/13 07:50:08;;;;;;;29.63;12.05;;;;;;;;;;10005953;29;20080;-62
2021/04/13 07:55:07;;;;;;;24.40;9.18;;;;;;;;;;10006197;29;20071;-62
2021/04/13 08:00:08;;;;;;;19.95;10.52;;;;;;;;;;10004963;29;20050;-63
2021/04/13 08:05:13;;;;;;;31.63;10.13;;;;;;;;;;10004320;29;20060;-63
2021/04/13 08:10:13;;;;;;;21.25;8.73;;;;;;;;;;10005491;29;20475;-62
2021/04/13 08:15:13;;;;;;;20.20;9.30;;;;;;;;;;10005708;29;20044;-61
2021/04/13 08:20:12;;;;;;;16.60;8.52;;;;;;;;;;10003349;29;20052;-63
2021/04/13 08:25:10;;;;;;;18.63;10.00;;;;;;;;;;10004769;29;20071;-62
2021/04/13 08:30:16;;;;;;;20.90;10.23;;;;;;;;;;10003737;29;20504;-62
2021/04/13 08:35:21;;;;;;;23.85;10.07;;;;;;;;;;10004319;29;20439;-62
2021/04/13 08:40:25;;;;;;;22.73;15.88;;;;;;;;;;10004465;29;20048;-63
2021/04/13 08:45:27;;;;;;;28.27;9.90;;;;;;;;;;10003700;29;20052;-63
2021/04/13 08:50:30;;;;;;;115.50;84.57;;;;;;;;;;10004330;29;20084;-61
2021/04/13 08:55:41;;;;;;;21.85;11.02;;;;;;;;;;10003938;29;20076;-62
2021/04/13 09:00:42;;;;;;;32.63;9.88;;;;;;;;;;10002505;29;20063;-63
2021/04/13 09:05:40;;;;;;;24.52;11.68;;;;;;;;;;10001663;29;20087;-63
2021/04/13 09:10:40;;;;;;;22.98;10.63;;;;;;;;;;10001853;29;20434;-63
2021/04/13 09:15:47;;;;;;;17.50;9.63;;;;;;;;;;10001885;29;20094;-63
2021/04/13 09:20:59;;;;;;;20.48;10.50;;;;;;;;;;10001634;29;20087;-63
2021/04/13 09:26:02;;;;;;;20.70;10.18;;;;;;;;;;10001961;29;20104;-62
2021/04/13 09:31:07;;;;;;;29.73;10.68;;;;;;;;;;10001638;29;20489;-64
2021/04/13 09:36:14;;;;;;;17.25;9.48;;;;;;;;;;10002118;29;20079;-63
2021/04/13 09:41:16;;;;;;;15.30;6.60;;;;;;;;;;10001333;29;20056;-62
2021/04/13 09:46:24;;;;;;;14.32;6.80;;;;;;;;;;10000819;29;20076;-63
2021/04/13 09:51:23;;;;;;;13.00;5.32;;;;;;;;;;10000945;29;20086;-63
2021/04/13 09:56:27;;;;;;;12.75;7.88;;;;;;;;;;10000557;29;20040;-63
2021/04/13 10:01:31;;;;;;;10.80;5.97;;;;;;;;;;10000597;29;20079;-63
2021/04/13 10:06:29;;;;;;;8.63;5.57;;;;;;;;;;10000421;29;20040;-63
2021/04/13 10:11:54;;;;;;;13.18;5.65;;;;;;;;;;10000183;29;20128;-63
2021/04/13 10:16:59;;;;;;;18.03;5.33;;;;;;;;;;10000374;29;20052;-63
2021/04/13 10:22:30;;;;;;;17.55;5.90;;;;;;;;;;10000139;29;20391;-63
2021/04/13 10:27:54;;;;;;;11.93;5.65;;;;;;;;;;9999621;29;20127;-63
2021/04/13 10:33:04;;;;;;;18.27;5.93;;;;;;;;;;9983281;29;20098;-63
2021/04/13 10:38:19;;;;;;;9.45;5.53;;;;;;;;;;9999677;29;20090;-63
2021/04/13 10:43:26;;;;;;;19.58;7.90;;;;;;;;;;9999359;29;20114;-63
2021/04/13 10:48:48;;;;;;;14.13;5.65;;;;;;;;;;9998377;29;20087;-63
2021/04/13 10:54:00;;;;;;;9.15;5.05;;;;;;;;;;9998835;29;20090;-59
2021/04/13 10:59:18;;;;;;;10.05;5.00;;;;;;;;;;9997154;29;20088;-61
2021/04/13 11:04:33;;;;;;;11.80;6.75;;;;;;;;;;9999059;29;20521;-60
2021/04/13 11:09:40;;;;;;;12.02;6.82;;;;;;;;;;9999469;29;20135;-59
2021/04/13 11:14:52;;;;;;;10.13;5.72;;;;;;;;;;9998447;29;21124;-60
2021/04/13 11:19:57;;;;;;;13.15;7.15;;;;;;;;;;9998845;29;20056;-61
2021/04/13 11:25:09;;;;;;;13.23;5.97;;;;;;;;;;9999533;29;20087;-60
2021/04/13 11:30:24;;;;;;;15.10;7.50;;;;;;;;;;9996501;29;20528;-60
2021/04/13 11:35:22;;;;;;;9.80;5.63;;;;;;;;;;9998371;29;20076;-60
2021/04/13 11:40:46;;;;;;;13.15;8.68;;;;;;;;;;9998612;29;20524;-60
2021/04/13 11:45:48;;;;;;;8.10;5.40;;;;;;;;;;9997789;29;20048;-60
2021/04/13 11:50:53;;;;;;;13.02;7.18;;;;;;;;;;9996812;29;20099;-60
2021/04/13 11:55:51;;;;;;;10.70;5.38;;;;;;;;;;9997653;29;20044;-60
2021/04/13 12:00:49;;;;;;;14.85;9.77;;;;;;;;;;9997614;29;20082;-62
2021/04/13 12:05:49;;;;;;;21.08;13.55;;;;;;;;;;9997425;29;20048;-59
2021/04/13 12:10:50;;;;;;;25.17;14.27;;;;;;;;;;10004292;29;20490;-59
2021/04/13 12:15:56;;;;;;;25.92;14.10;;;;;;;;;;10004044;29;20086;-60
2021/04/13 12:20:54;;;;;;;23.30;14.23;;;;;;;;;;10003984;29;20410;-59
2021/04/13 12:26:05;;;;;;;28.45;11.35;;;;;;;;;;10003898;29;20055;-60
2021/04/13 12:31:22;;;;;;;26.20;11.18;;;;;;;;;;10003877;29;20087;-60
2021/04/13 12:36:38;;;;;;;19.88;13.30;;;;;;;;;;10003692;29;20045;-59
2021/04/13 12:41:50;;;;;;;20.63;9.32;;;;;;;;;;10004209;29;20399;-59
2021/04/13 12:46:49;;;;;;;16.90;8.40;;;;;;;;;;10003447;29;20052;-59
2021/04/13 12:51:51;;;;;;;17.23;11.95;;;;;;;;;;10003208;29;20489;-60
2021/04/13 12:56:49;;;;;;;18.50;8.40;;;;;;;;;;10002838;29;20052;-60
2021/04/13 13:01:47;;;;;;;14.57;6.60;;;;;;;;;;10002337;29;20087;-59
2021/04/13 13:06:47;;;;;;;14.63;7.25;;;;;;;;;;10002814;29;20076;-59
2021/04/13 13:11:45;;;;;;;16.60;7.10;;;;;;;;;;10001792;29;20088;-59
2021/04/13 13:16:43;;;;;;;13.43;7.22;;;;;;;;;;10001448;29;20161;-59
2021/04/13 13:21:49;;;;;;;14.10;8.38;;;;;;;;;;10001928;29;20478;-59
2021/04/13 13:26:47;;;;;;;14.18;7.18;;;;;;;;;;10002025;29;20040;-59
2021/04/13 13:31:46;;;;;;;12.98;7.80;;;;;;;;;;10001390;29;20118;-60
2021/04/13 13:36:46;;;;;;;13.32;7.43;;;;;;;;;;10001527;29;20505;-60
2021/04/13 13:41:45;;;;;;;9.18;6.53;;;;;;;;;;10001242;29;20084;-59
2021/04/13 13:46:45;;;;;;;31.50;17.80;;;;;;;;;;10001038;29;20477;-59
2021/04/13 13:51:56;;;;;;;14.20;8.80;;;;;;;;;;10000950;29;20504;-60
2021/04/13 13:56:54;;;;;;;15.93;6.18;;;;;;;;;;10000498;29;20624;-58
2021/04/13 14:02:09;;;;;;;16.30;7.35;;;;;;;;;;10000874;29;20048;-61
2021/04/13 14:07:09;;;;;;;16.02;9.18;;;;;;;;;;10000800;29;20048;-61
2021/04/13 14:12:28;;;;;;;20.55;10.73;;;;;;;;;;10000188;29;20084;-61
2021/04/13 14:17:31;;;;;;;18.33;9.15;;;;;;;;;;9999756;29;20091;-61
2021/04/13 14:22:29;;;;;;;16.13;9.30;;;;;;;;;;9997981;29;20051;-61
2021/04/13 14:27:27;;;;;;;12.23;7.15;;;;;;;;;;9999845;29;20075;-62
2021/04/13 14:32:26;;;;;;;16.95;8.52;;;;;;;;;;9998223;29;20123;-60
2021/04/13 14:37:26;;;;;;;21.70;10.27;;;;;;;;;;9998917;29;20055;-59
2021/04/13 14:42:27;;;;;;;17.00;8.18;;;;;;;;;;9998705;29;20103;-59
2021/04/13 14:47:26;;;;;;;12.40;5.80;;;;;;;;;;9999304;29;20075;-61
2021/04/13 14:52:28;;;;;;;25.35;14.93;;;;;;;;;;9998863;29;20079;-59
2021/04/13 14:57:26;;;;;;;19.10;10.73;;;;;;;;;;9999038;29;20472;-60
2021/04/13 15:02:23;;;;;;;17.27;10.10;;;;;;;;;;9998959;29;20082;-62
2021/04/13 15:07:21;;;;;;;17.23;9.98;;;;;;;;;;9998798;29;20044;-61
2021/04/13 15:12:18;;;;;;;21.27;12.73;;;;;;;;;;9998711;29;20083;-60
2021/04/13 15:17:21;;;;;;;16.55;6.88;;;;;;;;;;9996736;29;20052;-60
2021/04/13 15:22:20;;;;;;;19.55;10.65;;;;;;;;;;9996636;29;20049;-60
2021/04/13 15:27:17;;;;;;;15.23;10.27;;;;;;;;;;9998141;29;20048;-62
2021/04/13 15:32:14;;;;;;;27.15;15.98;;;;;;;;;;9998493;29;20093;-59
2021/04/13 15:37:19;;;;;;;26.25;13.10;;;;;;;;;;9998328;29;20056;-59
2021/04/13 15:42:19;;;;;;;44.58;20.35;;;;;;;;;;10002053;29;20102;-63
2021/04/13 15:47:18;;;;;;;19.92;12.18;;;;;;;;;;10005064;29;20549;-59
2021/04/13 15:52:16;;;;;;;54.63;29.83;;;;;;;;;;10004594;29;20082;-61
2021/04/13 15:57:13;;;;;;;34.92;21.25;;;;;;;;;;10005155;29;20485;-61
2021/04/13 16:02:11;;;;;;;21.85;16.15;;;;;;;;;;10004732;29;20075;-60
2021/04/13 16:07:08;;;;;;;37.60;20.02;;;;;;;;;;10004611;29;20044;-61
2021/04/13 16:12:07;;;;;;;31.20;19.17;;;;;;;;;;10021647;29;20137;-61
2021/04/13 16:17:05;;;;;;;78.43;42.42;;;;;;;;;;10016661;29;20171;-60
2021/04/13 16:22:02;;;;;;;36.08;20.10;;;;;;;;;;10002624;29;20170;-62
2021/04/13 16:27:00;;;;;;;24.35;14.60;;;;;;;;;;10009248;29;20075;-61
2021/04/13 16:31:59;;;;;;;28.40;18.70;;;;;;;;;;10003432;29;20517;-60
2021/04/13 16:36:58;;;;;;;45.00;24.55;;;;;;;;;;10025212;29;20082;-60
2021/04/13 16:41:57;;;;;;;16.50;10.93;;;;;;;;;;10007537;29;20465;-60
2021/04/13 16:46:57;;;;;;;36.67;32.13;;;;;;;;;;10009080;29;20071;-60
2021/04/13 16:51:58;;;;;;;39.50;27.73;;;;;;;;;;10002351;29;20088;-61
2021/04/13 16:56:56;;;;;;;66.85;40.75;;;;;;;;;;10018481;29;20087;-61
2021/04/13 17:01:57;;;;;;;24.25;20.10;;;;;;;;;;10024011;29;20079;-61
2021/04/13 17:07:00;;;;;;;24.20;15.77;;;;;;;;;;10021292;29;20086;-61
2021/04/13 17:12:05;;;;;;;18.15;11.70;;;;;;;;;;10019753;29;20083;-61
2021/04/13 17:17:07;;;;;;;16.55;11.90;;;;;;;;;;10002192;29;20102;-61
2021/04/13 17:22:05;;;;;;;18.63;10.77;;;;;;;;;;10007087;29;20083;-62
2021/04/13 17:27:04;;;;;;;15.32;12.85;;;;;;;;;;10007949;29;20083;-62
2021/04/13 17:32:02;;;;;;;16.65;11.05;;;;;;;;;;10033898;29;20508;-61
2021/04/13 17:37:01;;;;;;;21.00;13.00;;;;;;;;;;10040307;29;20087;-61
2021/04/13 17:42:02;;;;;;;37.55;33.53;;;;;;;;;;10021989;29;20052;-62
2021/04/13 17:47:02;;;;;;;23.13;15.07;;;;;;;;;;10000992;29;20473;-60
2021/04/13 17:52:01;;;;;;;41.97;24.40;;;;;;;;;;10014500;29;20090;-62
2021/04/13 17:57:02;;;;;;;55.33;31.45;;;;;;;;;;10039298;29;20051;-62
2021/04/13 18:02:00;;;;;;;26.52;15.63;;;;;;;;;;10039216;29;20086;-61
2021/04/13 18:07:00;;;;;;;104.28;66.28;;;;;;;;;;10039699;29;20079;-61
2021/04/13 18:12:00;;;;;;;41.47;25.83;;;;;;;;;;10038826;29;20188;-61
2021/04/13 18:17:00;;;;;;;96.07;50.72;;;;;;;;;;10038840;29;20087;-62
2021/04/13 18:22:00;;;;;;;47.72;22.80;;;;;;;;;;10038658;29;20489;-62
2021/04/13 18:26:59;;;;;;;52.13;26.63;;;;;;;;;;10038229;29;20080;-61
2021/04/13 18:32:00;;;;;;;30.70;18.30;;;;;;;;;;10038659;29;20106;-62
2021/04/13 18:37:01;;;;;;;30.70;17.42;;;;;;;;;;10037864;29;20078;-62
2021/04/13 18:42:01;;;;;;;20.25;12.35;;;;;;;;;;10037589;29;20521;-61
2021/04/13 18:47:00;;;;;;;24.63;14.75;;;;;;;;;;10037756;29;20058;-62
2021/04/13 18:52:01;;;;;;;32.22;17.60;;;;;;;;;;10037075;29;20172;-63
2021/04/13 18:56:59;;;;;;;23.55;15.20;;;;;;;;;;10037500;29;20140;-62
2021/04/13 19:01:57;;;;;;;16.85;11.75;;;;;;;;;;10036735;29;20087;-61
2021/04/13 19:06:59;;;;;;;15.63;12.57;;;;;;;;;;10037489;29;20493;-62
2021/04/13 19:11:59;;;;;;;29.95;17.10;;;;;;;;;;10036984;29;20113;-62
2021/04/13 19:16:58;;;;;;;16.48;10.27;;;;;;;;;;10044083;29;20401;-63
2021/04/13 19:21:58;;;;;;;98.60;43.40;;;;;;;;;;10049625;29;20051;-62
2021/04/13 19:26:59;;;;;;;47.20;22.92;;;;;;;;;;10048331;29;20054;-62
2021/04/13 19:32:00;;;;;;;17.15;9.73;;;;;;;;;;10049619;29;20102;-61
2021/04/13 19:37:00;;;;;;;22.80;13.65;;;;;;;;;;10049940;29;20486;-62
2021/04/13 19:42:03;;;;;;;18.92;14.13;;;;;;;;;;10049553;29;20369;-61
2021/04/13 19:47:03;;;;;;;21.30;14.70;;;;;;;;;;10048862;29;20052;-62
2021/04/13 19:52:02;;;;;;;24.83;17.20;;;;;;;;;;10049830;29;20079;-62
2021/04/13 19:57:02;;;;;;;30.35;19.33;;;;;;;;;;10049216;29;20071;-61
2021/04/13 20:02:01;;;;;;;22.65;15.35;;;;;;;;;;10049307;29;20051;-62
2021/04/13 20:06:58;;;;;;;19.80;11.57;;;;;;;;;;10049223;29;20055;-63
2021/04/13 20:12:00;;;;;;;25.63;16.67;;;;;;;;;;10049336;29;20525;-62
2021/04/13 20:17:05;;;;;;;24.38;16.63;;;;;;;;;;10049261;29;20086;-63
2021/04/13 20:22:03;;;;;;;14.95;12.15;;;;;;;;;;10048991;29;20090;-62
2021/04/13 20:27:06;;;;;;;20.42;13.30;;;;;;;;;;10044961;29;20077;-61
2021/04/13 20:32:08;;;;;;;17.02;10.57;;;;;;;;;;10042505;29;20087;-62
2021/04/13 20:42:27;;;;;;;14.07;10.45;;;;;;;;;;10043166;29;20110;-62
2021/04/13 20:47:28;;;;;;;14.07;9.95;;;;;;;;;;10042177;29;20054;-62
2021/04/13 20:52:28;;;;;;;17.58;9.95;;;;;;;;;;10042001;29;20071;-61
2021/04/13 20:57:27;;;;;;;10.60;8.95;;;;;;;;;;10041991;29;20078;-61
2021/04/13 21:02:28;;;;;;;12.45;8.68;;;;;;;;;;10041305;29;20414;-62
2021/04/13 21:07:33;;;;;;;11.68;9.38;;;;;;;;;;10041754;29;20528;-61
2021/04/13 21:12:31;;;;;;;12.47;8.73;;;;;;;;;;10041331;29;20536;-62
2021/04/13 21:17:30;;;;;;;9.68;6.70;;;;;;;;;;10040914;29;20512;-62
2021/04/13 21:22:29;;;;;;;10.80;7.57;;;;;;;;;;10040632;29;20047;-62
2021/04/13 21:27:30;;;;;;;11.27;6.35;;;;;;;;;;10040701;29;20036;-62
2021/04/13 21:32:32;;;;;;;11.95;7.85;;;;;;;;;;10002583;29;20086;-62
2021/04/13 21:37:36;;;;;;;10.60;7.47;;;;;;;;;;10002447;29;20052;-60
2021/04/13 21:42:35;;;;;;;12.65;7.75;;;;;;;;;;10001367;29;20068;-61
2021/04/13 21:47:35;;;;;;;12.82;6.80;;;;;;;;;;10001478;29;20418;-60
2021/04/13 21:52:38;;;;;;;9.27;6.93;;;;;;;;;;10000858;29;20094;-60
2021/04/13 21:57:40;;;;;;;9.80;6.72;;;;;;;;;;10000795;29;20059;-62
2021/04/13 22:02:39;;;;;;;10.15;7.25;;;;;;;;;;10000579;29;20040;-63
2021/04/13 22:07:38;;;;;;;13.32;7.97;;;;;;;;;;10000832;29;20083;-62
2021/04/13 22:12:37;;;;;;;12.68;6.65;;;;;;;;;;10000383;29;20080;-60
2021/04/13 22:17:37;;;;;;;10.18;7.43;;;;;;;;;;9999943;29;20076;-62
2021/04/13 22:22:37;;;;;;;9.25;7.15;;;;;;;;;;10000250;29;20055;-62
2021/04/13 22:27:38;;;;;;;7.97;6.03;;;;;;;;;;10000397;29;20080;-62
2021/04/13 22:32:38;;;;;;;14.45;7.78;;;;;;;;;;10037659;29;20089;-62
2021/04/13 22:37:37;;;;;;;9.45;6.72;;;;;;;;;;10037597;29;20052;-63
2021/04/13 22:42:35;;;;;;;11.43;7.63;;;;;;;;;;10038070;29;20079;-62
2021/04/13 22:47:33;;;;;;;8.57;6.47;;;;;;;;;;10037412;29;20071;-63
2021/04/13 22:52:33;;;;;;;9.25;6.80;;;;;;;;;;10037686;29;20076;-62
2021/04/13 22:57:34;;;;;;;8.35;6.65;;;;;;;;;;10037947;29;20083;-62
2021/04/13 23:02:32;;;;;;;11.45;8.25;;;;;;;;;;10037597;29;20047;-62
2021/04/13 23:07:30;;;;;;;10.60;7.22;;;;;;;;;;10037021;29;20568;-62
2021/04/13 23:12:27;;;;;;;9.82;8.55;;;;;;;;;;10037384;29;20082;-62
2021/04/13 23:17:24;;;;;;;10.43;7.30;;;;;;;;;;10036790;29;20047;-62
2021/04/13 23:22:23;;;;;;;15.90;8.13;;;;;;;;;;10036934;29;20521;-62
2021/04/13 23:27:20;;;;;;;10.43;7.57;;;;;;;;;;10037336;29;20047;-62
2021/04/13 23:32:17;;;;;;;10.60;7.35;;;;;;;;;;10037142;29;20059;-62
2021/04/13 23:37:15;;;;;;;13.57;8.05;;;;;;;;;;10035491;29;20645;-63
2021/04/13 23:42:14;;;;;;;10.07;7.50;;;;;;;;;;10036725;29;20413;-61
2021/04/13 23:47:11;;;;;;;9.32;7.20;;;;;;;;;;10036637;29;20039;-62
2021/04/13 23:52:09;;;;;;;11.55;6.80;;;;;;;;;;10036341;29;20075;-62
2021/04/13 23:57:07;;;;;;;9.07;6.88;;;;;;;;;;10036713;29;20055;-62
